createdAt,value
2023-04-25T00:01:33.361Z,99530.00
2023-04-25T00:04:02.594Z,99525.00
2023-04-25T00:06:33.305Z,99537.00
2023-04-25T00:09:01.438Z,99526.00
2023-04-25T00:11:29.713Z,99532.00
2023-04-25T00:13:58.594Z,99534.00
2023-04-25T00:16:26.792Z,99533.00
2023-04-25T00:18:55.042Z,99532.00
2023-04-25T00:21:23.612Z,99542.00
2023-04-25T00:23:52.073Z,99547.00
2023-04-25T00:26:22.219Z,99543.00
2023-04-25T00:28:50.598Z,99535.00
2023-04-25T00:31:18.785Z,99542.00
2023-04-25T00:33:47.263Z,99539.00
2023-04-25T00:36:16.122Z,99542.00
2023-04-25T00:38:44.398Z,99546.00
2023-04-25T00:41:12.617Z,99552.00
2023-04-25T00:43:42.186Z,99544.00
2023-04-25T00:46:10.396Z,99534.00
2023-04-25T00:48:38.991Z,99538.00
2023-04-25T00:51:07.553Z,99536.00
2023-04-25T00:53:36.125Z,99534.00
2023-04-25T00:56:05.347Z,99537.00
2023-04-25T00:58:33.751Z,99530.00
2023-04-25T01:01:02.740Z,99532.00
2023-04-25T01:03:33.346Z,99529.00
2023-04-25T01:06:01.562Z,99527.00
2023-04-25T01:08:29.920Z,99522.00
2023-04-25T01:10:58.086Z,99528.00
2023-04-25T01:13:26.382Z,99525.00
2023-04-25T01:15:54.902Z,99524.00
2023-04-25T01:18:23.079Z,99526.00
2023-04-25T01:20:53.287Z,99536.00
2023-04-25T01:23:23.195Z,99533.00
2023-04-25T01:25:52.288Z,99532.00
2023-04-25T01:28:21.019Z,99528.00
2023-04-25T01:30:49.523Z,99524.00
2023-04-25T01:33:17.860Z,99525.00
2023-04-25T01:35:46.039Z,99517.00
2023-04-25T01:38:14.944Z,99521.00
2023-04-25T01:40:43.403Z,99522.00
2023-04-25T01:43:13.324Z,99526.00
2023-04-25T01:45:44.494Z,99520.00
2023-04-25T01:48:15.797Z,99522.00
2023-04-25T01:50:47.149Z,99527.00
2023-04-25T01:53:16.202Z,99532.00
2023-04-25T01:55:46.618Z,99537.00
2023-04-25T01:58:17.245Z,99541.00
2023-04-25T02:01:02.008Z,99541.00
2023-04-25T02:03:37.352Z,99536.00
2023-04-25T02:06:09.285Z,99535.00
2023-04-25T02:08:40.861Z,99542.00
2023-04-25T02:11:08.927Z,99541.00
2023-04-25T02:13:43.226Z,99536.00
2023-04-25T02:16:40.872Z,99533.00
2023-04-25T02:19:09.516Z,99534.00
2023-04-25T02:21:37.676Z,99537.00
2023-04-25T02:24:06.389Z,99540.00
2023-04-25T02:26:35.452Z,99542.00
2023-04-25T02:29:03.588Z,99534.00
2023-04-25T02:31:31.751Z,99532.00
2023-04-25T02:34:00.313Z,99535.00
2023-04-25T02:36:31.667Z,99537.00
2023-04-25T02:39:00.260Z,99538.00
2023-04-25T02:41:28.834Z,99533.00
2023-04-25T02:43:57.517Z,99528.00
2023-04-25T02:46:38.485Z,99532.00
2023-04-25T02:49:08.362Z,99535.00
2023-04-25T02:51:37.081Z,99532.00
2023-04-25T02:54:05.401Z,99530.00
2023-04-25T02:56:37.764Z,99533.00
2023-04-25T02:59:10.834Z,99528.00
2023-04-25T03:01:38.968Z,99537.00
2023-04-25T03:04:07.136Z,99536.00
2023-04-25T03:06:35.361Z,99537.00
2023-04-25T03:09:03.580Z,99540.00
2023-04-25T03:11:32.405Z,99535.00
2023-04-25T03:14:00.631Z,99531.00
2023-04-25T03:16:29.008Z,99535.00
2023-04-25T03:18:57.087Z,99535.00
2023-04-25T03:21:25.932Z,99537.00
2023-04-25T03:23:54.484Z,99536.00
2023-04-25T03:26:22.891Z,99541.00
2023-04-25T03:28:51.336Z,99538.00
2023-04-25T03:31:19.564Z,99537.00
2023-04-25T03:33:48.001Z,99542.00
2023-04-25T03:36:16.720Z,99552.00
2023-04-25T03:38:44.808Z,99556.00
2023-04-25T03:41:15.633Z,99554.00
2023-04-25T03:43:50.827Z,99560.00
2023-04-25T03:46:19.358Z,99569.00
2023-04-25T03:48:48.889Z,99564.00
2023-04-25T03:51:23.169Z,99566.00
2023-04-25T03:53:52.170Z,99570.00
2023-04-25T03:56:32.551Z,99569.00
2023-04-25T03:59:11.579Z,99579.00
2023-04-25T04:05:47.857Z,99587.00
2023-04-25T04:08:16.243Z,99586.00
2023-04-25T04:10:44.546Z,99587.00
2023-04-25T04:13:13.555Z,99591.00
2023-04-25T04:15:41.623Z,99585.00
2023-04-25T04:18:09.741Z,99595.00
2023-04-25T04:20:37.791Z,99589.00
2023-04-25T04:23:07.912Z,99602.00
2023-04-25T04:25:36.773Z,99605.00
2023-04-25T04:28:23.696Z,99614.00
2023-04-25T04:31:13.198Z,99619.00
2023-04-25T04:33:41.455Z,99626.00
2023-04-25T04:36:10.120Z,99618.00
2023-04-25T04:38:41.851Z,99625.00
2023-04-25T04:41:13.864Z,99633.00
2023-04-25T04:43:57.620Z,99638.00
2023-04-25T04:46:39.104Z,99638.00
2023-04-25T04:49:26.263Z,99636.00
2023-04-25T04:52:13.207Z,99639.00
2023-04-25T04:54:57.117Z,99642.00
2023-04-25T04:57:43.564Z,99643.00
2023-04-25T05:00:34.556Z,99646.00
2023-04-25T05:03:33.520Z,99653.00
2023-04-25T05:06:30.430Z,99660.00
2023-04-25T05:09:27.184Z,99652.00
2023-04-25T05:12:09.064Z,99654.00
2023-04-25T05:14:56.182Z,99651.00
2023-04-25T05:17:51.948Z,99656.00
2023-04-25T05:20:41.305Z,99662.00
2023-04-25T05:23:09.439Z,99664.00
2023-04-25T05:25:56.125Z,99657.00
2023-04-25T05:28:47.536Z,99662.00
2023-04-25T05:31:39.774Z,99664.00
2023-04-25T05:34:14.978Z,99664.00
2023-04-25T05:36:53.072Z,99669.00
2023-04-25T05:39:21.944Z,99690.00
2023-04-25T05:42:05.113Z,99685.00
2023-04-25T05:45:00.712Z,99693.00
2023-04-25T05:47:42.510Z,99692.00
2023-04-25T05:50:33.613Z,99692.00
2023-04-25T05:53:14.895Z,99704.00
2023-04-25T05:55:45.221Z,99701.00
2023-04-25T05:58:23.797Z,99708.00
2023-04-25T06:00:53.062Z,99704.00
2023-04-25T06:03:21.608Z,99716.00
2023-04-25T06:05:50.955Z,99709.00
2023-04-25T06:08:18.928Z,99707.00
2023-04-25T06:10:47.148Z,99718.00
2023-04-25T06:13:16.737Z,99711.00
2023-04-25T06:15:45.271Z,99716.00
2023-04-25T06:18:13.846Z,99722.00
2023-04-25T06:20:42.003Z,99714.00
2023-04-25T06:23:10.086Z,99715.00
2023-04-25T06:25:58.624Z,99716.00
2023-04-25T06:28:28.760Z,99717.00
2023-04-25T06:30:57.259Z,99720.00
2023-04-25T06:33:25.886Z,99717.00
2023-04-25T06:35:55.361Z,99726.00
2023-04-25T06:38:27.114Z,99738.00
2023-04-25T06:40:57.739Z,99736.00
2023-04-25T06:43:27.581Z,99748.00
2023-04-25T06:46:16.008Z,99747.00
2023-04-25T06:48:48.719Z,99738.00
2023-04-25T06:51:19.213Z,99738.00
2023-04-25T06:53:48.108Z,99744.00
2023-04-25T06:56:25.902Z,99740.00
2023-04-25T06:59:03.986Z,99739.00
2023-04-25T07:01:40.349Z,99739.00
2023-04-25T07:04:16.931Z,99751.00
2023-04-25T07:06:57.749Z,99746.00
2023-04-25T07:09:48.680Z,99747.00
2023-04-25T07:12:16.974Z,99746.00
2023-04-25T07:14:45.828Z,99752.00
2023-04-25T07:17:14.576Z,99749.00
2023-04-25T07:19:43.369Z,99755.00
2023-04-25T07:22:11.457Z,99752.00
2023-04-25T07:24:42.467Z,99760.00
2023-04-25T07:27:13.720Z,99762.00
2023-04-25T07:30:14.298Z,99757.00
2023-04-25T07:32:42.904Z,99751.00
2023-04-25T07:35:11.157Z,99768.00
2023-04-25T07:37:39.700Z,99769.00
2023-04-25T07:40:12.924Z,99767.00
2023-04-25T07:42:46.874Z,99769.00
2023-04-25T07:45:19.485Z,99770.00
2023-04-25T07:47:48.020Z,99774.00
2023-04-25T07:50:16.569Z,99775.00
2023-04-25T07:52:44.754Z,99773.00
2023-04-25T07:55:41.318Z,99785.00
2023-04-25T07:58:16.652Z,99786.00
2023-04-25T08:00:49.199Z,99785.00
2023-04-25T08:03:32.395Z,99782.00
2023-04-25T08:06:04.862Z,99790.00
2023-04-25T08:08:42.921Z,99792.00
2023-04-25T08:11:14.262Z,99799.00
2023-04-25T08:13:42.432Z,99798.00
2023-04-25T08:16:11.400Z,99802.00
2023-04-25T08:18:39.588Z,99800.00
2023-04-25T08:21:10.066Z,99796.00
2023-04-25T08:23:38.483Z,99805.00
2023-04-25T08:26:13.482Z,99825.00
2023-04-25T08:28:44.248Z,99820.00
2023-04-25T08:31:12.681Z,99828.00
2023-04-25T08:33:53.572Z,99811.00
2023-04-25T08:36:39.914Z,99818.00
2023-04-25T08:39:27.666Z,99823.00
2023-04-25T08:42:19.408Z,99825.00
2023-04-25T08:44:47.983Z,99823.00
2023-04-25T08:47:16.237Z,99823.00
2023-04-25T08:49:50.319Z,99830.00
2023-04-25T08:52:24.676Z,99833.00
2023-04-25T08:54:55.631Z,99841.00
2023-04-25T08:57:25.264Z,99846.00
2023-04-25T08:59:54.161Z,99855.00
2023-04-25T09:02:24.379Z,99852.00
2023-04-25T09:04:55.916Z,99860.00
2023-04-25T09:07:24.600Z,99861.00
2023-04-25T09:09:52.698Z,99866.00
2023-04-25T09:12:23.844Z,99862.00
2023-04-25T09:15:20.480Z,99875.00
2023-04-25T09:17:58.721Z,99879.00
2023-04-25T09:20:31.868Z,99886.00
2023-04-25T09:23:08.408Z,99884.00
2023-04-25T09:25:40.680Z,99884.00
2023-04-25T09:28:12.265Z,99892.00
2023-04-25T09:30:40.545Z,99902.00
2023-04-25T09:33:38.343Z,99909.00
2023-04-25T09:36:13.216Z,99911.00
2023-04-25T09:39:02.467Z,99913.00
2023-04-25T09:41:34.001Z,99904.00
2023-04-25T09:44:04.850Z,99910.00
2023-04-25T09:46:40.539Z,99909.00
2023-04-25T09:49:16.989Z,99912.00
2023-04-25T09:52:15.128Z,99910.00
2023-04-25T09:54:52.589Z,99914.00
2023-04-25T09:57:28.300Z,99918.00
2023-04-25T09:59:58.706Z,99916.00
2023-04-25T10:02:30.989Z,99925.00
2023-04-25T10:05:08.497Z,99924.00
2023-04-25T10:07:40.895Z,99923.00
2023-04-25T10:10:16.792Z,99924.00
2023-04-25T10:12:45.526Z,99923.00
2023-04-25T10:15:14.573Z,99933.00
2023-04-25T10:17:43.946Z,99927.00
2023-04-25T10:20:12.260Z,99932.00
2023-04-25T10:22:46.199Z,99936.00
2023-04-25T10:25:15.096Z,99940.00
2023-04-25T10:27:44.586Z,99949.00
2023-04-25T10:30:17.065Z,99946.00
2023-04-25T10:32:46.649Z,99947.00
2023-04-25T10:35:17.265Z,99953.00
2023-04-25T10:38:11.194Z,99951.00
2023-04-25T10:40:39.608Z,99945.00
2023-04-25T10:43:33.136Z,99959.00
2023-04-25T10:46:14.210Z,99958.00
2023-04-25T10:48:49.104Z,99950.00
2023-04-25T10:51:50.923Z,99951.00
2023-04-25T10:54:24.252Z,99950.00
2023-04-25T10:56:52.990Z,99943.00
2023-04-25T10:59:22.864Z,99952.00
2023-04-25T11:01:55.988Z,99941.00
2023-04-25T11:04:30.123Z,99943.00
2023-04-25T11:07:25.981Z,99950.00
2023-04-25T11:09:54.279Z,99955.00
2023-04-25T11:12:22.444Z,99951.00
2023-04-25T11:14:50.656Z,99945.00
2023-04-25T11:17:18.812Z,99949.00
2023-04-25T11:19:51.048Z,99959.00
2023-04-25T11:22:19.135Z,99951.00
2023-04-25T11:24:48.152Z,99953.00
2023-04-25T11:27:16.965Z,99943.00
2023-04-25T11:29:45.116Z,99959.00
2023-04-25T11:32:13.382Z,99954.00
2023-04-25T11:34:43.967Z,99946.00
2023-04-25T11:37:13.839Z,99958.00
2023-04-25T11:39:47.032Z,99959.00
2023-04-25T11:42:15.864Z,99960.00
2023-04-25T11:44:44.025Z,99967.00
2023-04-25T11:47:12.417Z,99964.00
2023-04-25T11:49:40.753Z,99971.00
2023-04-25T11:52:09.419Z,99968.00
2023-04-25T11:54:38.499Z,99973.00
2023-04-25T11:57:06.878Z,99974.00
2023-04-25T11:59:34.929Z,99981.00
2023-04-25T12:02:03.374Z,99978.00
2023-04-25T12:04:34.460Z,99974.00
2023-04-25T12:07:03.615Z,99984.00
2023-04-25T12:09:33.613Z,99987.00
2023-04-25T12:12:07.041Z,99989.00
2023-04-25T12:14:37.193Z,99991.00
2023-04-25T12:17:09.539Z,99989.00
2023-04-25T12:19:42.031Z,99995.00
2023-04-25T12:22:24.099Z,99988.00
2023-04-25T12:24:54.517Z,99986.00
2023-04-25T12:27:22.890Z,99990.00
2023-04-25T12:29:56.159Z,99995.00
2023-04-25T12:32:24.565Z,99995.00
2023-04-25T12:34:52.730Z,100001.00
2023-04-25T12:37:20.888Z,99997.00
2023-04-25T12:39:48.981Z,99995.00
2023-04-25T12:42:17.225Z,99995.00
2023-04-25T12:44:45.650Z,99998.00
2023-04-25T12:47:13.844Z,100000.00
2023-04-25T12:49:42.422Z,100009.00
2023-04-25T12:52:10.507Z,100001.00
2023-04-25T12:54:39.934Z,100011.00
2023-04-25T12:57:08.450Z,100007.00
2023-04-25T12:59:39.220Z,100009.00
2023-04-25T13:02:07.415Z,100012.00
2023-04-25T13:04:35.940Z,100021.00
2023-04-25T13:07:04.746Z,100023.00
2023-04-25T13:09:32.760Z,100032.00
2023-04-25T13:12:00.837Z,100025.00
2023-04-25T13:14:29.187Z,100042.00
2023-04-25T13:16:57.469Z,100041.00
2023-04-25T13:19:27.328Z,100055.00
2023-04-25T13:21:55.821Z,100047.00
2023-04-25T13:24:24.305Z,100049.00
2023-04-25T13:26:52.373Z,100044.00
2023-04-25T13:29:20.720Z,100049.00
2023-04-25T13:31:48.993Z,100049.00
2023-04-25T13:34:17.300Z,100047.00
2023-04-25T13:36:45.295Z,100060.00
2023-04-25T13:39:13.634Z,100041.00
2023-04-25T13:41:41.703Z,100059.00
2023-04-25T13:44:09.864Z,100056.00
2023-04-25T13:46:46.182Z,100057.00
2023-04-25T13:49:15.539Z,100051.00
2023-04-25T13:51:43.804Z,100048.00
2023-04-25T13:54:11.837Z,100055.00
2023-04-25T13:56:39.843Z,100061.00
2023-04-25T13:59:07.758Z,100052.00
2023-04-25T14:01:37.053Z,100046.00
2023-04-25T14:04:06.055Z,100047.00
2023-04-25T14:06:34.955Z,100045.00
2023-04-25T14:09:03.289Z,100044.00
2023-04-25T14:11:31.464Z,100049.00
2023-04-25T14:13:59.743Z,100050.00
2023-04-25T14:16:27.905Z,100055.00
2023-04-25T14:18:56.695Z,100065.00
2023-04-25T14:21:24.846Z,100065.00
2023-04-25T14:23:53.338Z,100066.00
2023-04-25T14:26:22.466Z,100067.00
2023-04-25T14:28:54.532Z,100074.00
2023-04-25T14:31:23.011Z,100076.00
2023-04-25T14:33:51.590Z,100069.00
2023-04-25T14:36:20.182Z,100084.00
2023-04-25T14:38:48.650Z,100087.00
2023-04-25T14:41:16.954Z,100086.00
2023-04-25T14:43:46.347Z,100080.00
2023-04-25T14:46:14.617Z,100090.00
2023-04-25T14:48:43.591Z,100098.00
2023-04-25T14:51:13.726Z,100088.00
2023-04-25T14:53:42.619Z,100078.00
2023-04-25T14:56:10.689Z,100089.00
2023-04-25T14:58:40.130Z,100086.00
2023-04-25T15:01:09.396Z,100099.00
2023-04-25T15:03:38.029Z,100089.00
2023-04-25T15:06:07.507Z,100090.00
2023-04-25T15:08:36.017Z,100092.00
2023-04-25T15:11:04.588Z,100087.00
2023-04-25T15:13:34.319Z,100100.00
2023-04-25T15:16:02.418Z,100091.00
2023-04-25T15:18:32.845Z,100106.00
2023-04-25T15:21:01.107Z,100099.00
2023-04-25T15:23:29.914Z,100104.00
2023-04-25T15:25:58.782Z,100111.00
2023-04-25T15:28:26.864Z,100124.00
2023-04-25T15:30:55.258Z,100123.00
2023-04-25T15:33:25.069Z,100128.00
2023-04-25T15:35:53.965Z,100140.00
2023-04-25T15:38:22.118Z,100142.00
2023-04-25T15:40:50.128Z,100132.00
2023-04-25T15:43:18.224Z,100128.00
2023-04-25T15:45:46.437Z,100132.00
2023-04-25T15:48:14.553Z,100126.00
2023-04-25T15:50:43.428Z,100139.00
2023-04-25T15:53:11.942Z,100133.00
2023-04-25T15:55:40.443Z,100129.00
2023-04-25T15:58:10.049Z,100128.00
2023-04-25T16:00:43.665Z,100136.00
2023-04-25T16:03:11.775Z,100121.00
2023-04-25T16:05:41.286Z,100128.00
2023-04-25T16:08:09.365Z,100129.00
2023-04-25T16:10:37.793Z,100127.00
2023-04-25T16:13:06.209Z,100126.00
2023-04-25T16:15:35.503Z,100137.00
2023-04-25T16:18:04.778Z,100133.00
2023-04-25T16:20:33.208Z,100141.00
2023-04-25T16:23:01.644Z,100142.00
2023-04-25T16:25:30.305Z,100143.00
2023-04-25T16:27:58.688Z,100137.00
2023-04-25T16:30:27.235Z,100144.00
2023-04-25T16:32:57.760Z,100147.00
2023-04-25T16:35:26.447Z,100148.00
2023-04-25T16:37:55.079Z,100148.00
2023-04-25T16:40:24.340Z,100154.00
2023-04-25T16:42:52.709Z,100159.00
2023-04-25T16:45:22.529Z,100152.00
2023-04-25T16:47:54.142Z,100161.00
2023-04-25T16:50:27.584Z,100160.00
2023-04-25T16:52:56.592Z,100152.00
2023-04-25T16:55:25.461Z,100160.00
2023-04-25T16:57:53.668Z,100160.00
2023-04-25T17:00:23.918Z,100160.00
2023-04-25T17:02:53.250Z,100158.00
2023-04-25T17:05:21.891Z,100164.00
2023-04-25T17:07:53.306Z,100166.00
2023-04-25T17:10:23.284Z,100163.00
2023-04-25T17:12:52.126Z,100166.00
2023-04-25T17:15:20.913Z,100163.00
2023-04-25T17:17:49.204Z,100165.00
2023-04-25T17:20:18.288Z,100166.00
2023-04-25T17:22:47.612Z,100176.00
2023-04-25T17:25:15.991Z,100165.00
2023-04-25T17:27:44.151Z,100181.00
2023-04-25T17:30:12.966Z,100200.00
2023-04-25T17:32:41.013Z,100192.00
2023-04-25T17:35:09.637Z,100173.00
2023-04-25T17:37:38.323Z,100169.00
2023-04-25T17:40:09.311Z,100170.00
2023-04-25T17:42:37.240Z,100174.00
2023-04-25T17:45:06.633Z,100181.00
2023-04-25T17:47:35.462Z,100181.00
2023-04-25T17:50:05.205Z,100184.00
2023-04-25T17:52:34.224Z,100183.00
2023-04-25T17:55:03.436Z,100183.00
2023-04-25T17:57:32.342Z,100184.00
2023-04-25T18:00:00.721Z,100188.00
2023-04-25T18:02:30.622Z,100196.00
2023-04-25T18:05:00.144Z,100197.00
2023-04-25T18:07:29.185Z,100198.00
2023-04-25T18:09:57.538Z,100205.00
2023-04-25T18:12:28.116Z,100202.00
2023-04-25T18:14:56.865Z,100203.00
2023-04-25T18:17:25.707Z,100206.00
2023-04-25T18:19:54.208Z,100207.00
2023-04-25T18:22:23.114Z,100218.00
2023-04-25T18:24:52.724Z,100222.00
2023-04-25T18:27:22.024Z,100216.00
2023-04-25T18:29:50.221Z,100226.00
2023-04-25T18:32:18.507Z,100233.00
2023-04-25T18:34:50.271Z,100232.00
2023-04-25T18:37:19.535Z,100252.00
2023-04-25T18:39:48.036Z,100253.00
2023-04-25T18:42:17.661Z,100257.00
2023-04-25T18:44:46.765Z,100260.00
2023-04-25T18:47:17.681Z,100260.00
2023-04-25T18:49:46.680Z,100257.00
2023-04-25T18:52:16.623Z,100259.00
2023-04-25T18:54:45.205Z,100272.00
2023-04-25T18:57:15.365Z,100269.00
2023-04-25T18:59:46.546Z,100271.00
2023-04-25T19:02:16.469Z,100275.00
2023-04-25T19:04:45.262Z,100270.00
2023-04-25T19:07:14.980Z,100280.00
2023-04-25T19:09:42.949Z,100276.00
2023-04-25T19:12:11.590Z,100286.00
2023-04-25T19:14:39.551Z,100288.00
2023-04-25T19:17:08.526Z,100291.00
2023-04-25T19:19:36.583Z,100298.00
2023-04-25T19:22:04.915Z,100299.00
2023-04-25T19:24:34.542Z,100303.00
2023-04-25T19:27:03.581Z,100307.00
2023-04-25T19:29:34.347Z,100307.00
2023-04-25T19:32:03.741Z,100306.00
2023-04-25T19:34:32.348Z,100306.00
2023-04-25T19:37:01.186Z,100308.00
2023-04-25T19:39:30.300Z,100306.00
2023-04-25T19:41:58.979Z,100308.00
2023-04-25T19:44:28.017Z,100304.00
2023-04-25T19:47:00.222Z,100307.00
2023-04-25T19:49:29.062Z,100321.00
2023-04-25T19:51:57.652Z,100320.00
2023-04-25T19:54:25.919Z,100321.00
2023-04-25T19:56:55.120Z,100334.00
2023-04-25T19:59:23.764Z,100336.00
2023-04-25T20:01:53.409Z,100338.00
2023-04-25T20:04:22.361Z,100341.00
2023-04-25T20:06:51.399Z,100338.00
2023-04-25T20:09:23.211Z,100338.00
2023-04-25T20:11:51.439Z,100336.00
2023-04-25T20:14:20.463Z,100348.00
2023-04-25T20:16:49.326Z,100346.00
2023-04-25T20:19:17.878Z,100341.00
2023-04-25T20:21:45.961Z,100338.00
2023-04-25T20:24:13.921Z,100340.00
2023-04-25T20:26:41.866Z,100343.00
2023-04-25T20:29:10.173Z,100343.00
2023-04-25T20:31:38.489Z,100342.00
2023-04-25T20:34:06.938Z,100347.00
2023-04-25T20:36:35.400Z,100349.00
2023-04-25T20:39:04.969Z,100348.00
2023-04-25T20:41:33.476Z,100345.00
2023-04-25T20:44:03.407Z,100347.00
2023-04-25T20:46:32.072Z,100341.00
2023-04-25T20:49:02.429Z,100346.00
2023-04-25T20:51:35.755Z,100344.00
2023-04-25T20:54:08.251Z,100346.00
2023-04-25T20:56:37.225Z,100339.00
2023-04-25T20:59:05.636Z,100341.00
2023-04-25T21:01:34.909Z,100349.00
2023-04-25T21:04:04.299Z,100347.00
2023-04-25T21:06:35.031Z,100345.00
2023-04-25T21:09:05.093Z,100350.00
2023-04-25T21:11:33.896Z,100340.00
2023-04-25T21:14:02.279Z,100356.00
2023-04-25T21:16:35.075Z,100352.00
2023-04-25T21:19:09.747Z,100350.00
2023-04-25T21:21:38.700Z,100350.00
2023-04-25T21:24:07.121Z,100353.00
2023-04-25T21:26:35.403Z,100355.00
2023-04-25T21:29:04.303Z,100363.00
2023-04-25T21:31:33.190Z,100359.00
2023-04-25T21:34:01.544Z,100362.00
2023-04-25T21:36:30.300Z,100366.00
2023-04-25T21:38:58.761Z,100374.00
2023-04-25T21:41:27.501Z,100370.00
2023-04-25T21:43:56.353Z,100369.00
2023-04-25T21:46:25.861Z,100370.00
2023-04-25T21:48:54.877Z,100363.00
2023-04-25T21:51:23.658Z,100376.00
2023-04-25T21:53:52.351Z,100366.00
2023-04-25T21:56:23.569Z,100362.00
2023-04-25T21:58:51.843Z,100362.00
2023-04-25T22:01:20.372Z,100366.00
2023-04-25T22:03:48.883Z,100366.00
2023-04-25T22:06:20.024Z,100376.00
2023-04-25T22:08:49.384Z,100369.00
2023-04-25T22:11:17.764Z,100369.00
2023-04-25T22:13:45.856Z,100362.00
2023-04-25T22:16:14.061Z,100377.00
2023-04-25T22:18:42.504Z,100375.00
2023-04-25T22:21:11.071Z,100392.00
2023-04-25T22:23:39.205Z,100377.00
2023-04-25T22:26:07.967Z,100377.00
2023-04-25T22:28:36.157Z,100389.00
2023-04-25T22:31:04.267Z,100383.00
2023-04-25T22:33:33.845Z,100388.00
2023-04-25T22:36:02.408Z,100386.00
2023-04-25T22:38:30.739Z,100385.00
2023-04-25T22:40:58.871Z,100392.00
2023-04-25T22:43:29.233Z,100392.00
2023-04-25T22:45:59.109Z,100396.00
2023-04-25T22:48:27.233Z,100395.00
2023-04-25T22:51:05.506Z,100403.00
2023-04-25T22:53:35.120Z,100406.00
2023-04-25T22:56:03.684Z,100410.00
2023-04-25T22:58:31.805Z,100408.00
2023-04-25T23:01:01.094Z,100406.00
2023-04-25T23:03:29.845Z,100408.00
2023-04-25T23:05:58.758Z,100403.00
2023-04-25T23:08:31.632Z,100407.00
2023-04-25T23:11:00.234Z,100407.00
2023-04-25T23:13:28.560Z,100406.00
2023-04-25T23:15:57.603Z,100415.00
2023-04-25T23:18:25.612Z,100401.00
2023-04-25T23:20:53.615Z,100410.00
2023-04-25T23:23:21.553Z,100406.00
2023-04-25T23:25:51.773Z,100410.00
2023-04-25T23:28:19.855Z,100408.00
2023-04-25T23:30:47.752Z,100419.00
2023-04-25T23:33:18.448Z,100418.00
2023-04-25T23:35:46.646Z,100416.00
2023-04-25T23:38:16.534Z,100419.00
2023-04-25T23:40:44.511Z,100417.00
2023-04-25T23:43:12.759Z,100420.00
2023-04-25T23:45:46.113Z,100425.00
2023-04-25T23:48:14.724Z,100424.00
2023-04-25T23:50:43.205Z,100432.00
2023-04-25T23:53:11.654Z,100432.00
2023-04-25T23:55:39.728Z,100427.00
2023-04-25T23:58:08.146Z,100426.00
